Time;durP1;ratioP1;P1;durP2;ratioP2;P2;SDS_P1;SDS_P2;PMS_P1;PMS_P2;Temp;Humidity;BMP_temperature;BMP_pressure;BME280_temperature;BME280_humidity;BME280_pressure;Samples;Min_cycle;Max_cycle;Signal;HPM_P1;HPM_P2
2022/07/02 00:01:51;;;;;;;6.60;5.97;;;;;;;;;;5017922;28;20448;-68
2022/07/02 00:04:21;;;;;;;8.68;6.13;;;;;;;;;;5016885;28;20396;-66
2022/07/02 00:06:49;;;;;;;7.35;6.18;;;;;;;;;;5017313;28;20041;-67
2022/07/02 00:09:15;;;;;;;6.47;5.90;;;;;;;;;;5018200;28;20026;-66
2022/07/02 00:11:41;;;;;;;7.20;5.43;;;;;;;;;;5025002;28;20117;-69
2022/07/02 00:14:08;;;;;;;6.43;5.82;;;;;;;;;;5017385;28;20064;-68
2022/07/02 00:16:34;;;;;;;7.15;6.45;;;;;;;;;;5015252;28;20029;-69
2022/07/02 00:18:59;;;;;;;7.60;6.00;;;;;;;;;;5023198;28;20025;-66
2022/07/02 00:21:25;;;;;;;6.90;6.25;;;;;;;;;;5026532;28;20502;-73
2022/07/02 00:23:51;;;;;;;8.48;6.20;;;;;;;;;;5026650;28;20108;-68
2022/07/02 00:26:16;;;;;;;7.15;5.65;;;;;;;;;;5018673;28;20425;-69
2022/07/02 00:28:42;;;;;;;8.80;6.28;;;;;;;;;;5019224;28;20030;-69
2022/07/02 00:31:07;;;;;;;10.23;6.90;;;;;;;;;;5026331;28;20079;-66
2022/07/02 00:33:37;;;;;;;6.90;6.20;;;;;;;;;;5021715;28;20025;-67
2022/07/02 00:36:03;;;;;;;7.07;6.18;;;;;;;;;;5020150;28;20032;-70
2022/07/02 00:38:28;;;;;;;8.93;7.00;;;;;;;;;;5020544;28;20349;-67
2022/07/02 00:40:54;;;;;;;7.82;7.00;;;;;;;;;;5025625;28;20018;-67
2022/07/02 00:43:20;;;;;;;7.07;6.38;;;;;;;;;;5025737;28;20116;-73
2022/07/02 00:45:46;;;;;;;7.03;6.38;;;;;;;;;;5023161;28;20018;-75
2022/07/02 00:48:14;;;;;;;6.93;6.25;;;;;;;;;;5019867;28;20036;-67
2022/07/02 00:50:40;;;;;;;8.03;7.23;;;;;;;;;;5018840;28;20387;-69
2022/07/02 00:53:05;;;;;;;6.88;6.20;;;;;;;;;;5014225;28;20351;-68
2022/07/02 00:55:31;;;;;;;7.22;6.63;;;;;;;;;;5019200;28;20037;-71
2022/07/02 00:57:56;;;;;;;9.15;6.50;;;;;;;;;;5021234;28;20045;-70
2022/07/02 01:00:22;;;;;;;11.98;6.50;;;;;;;;;;5016959;28;20121;-72
2022/07/02 01:02:48;;;;;;;8.00;7.18;;;;;;;;;;5016694;28;20440;-71
2022/07/02 01:05:15;;;;;;;7.35;6.65;;;;;;;;;;5018278;28;20104;-67
2022/07/02 01:07:44;;;;;;;7.03;6.32;;;;;;;;;;5018142;28;20025;-68
2022/07/02 01:10:19;;;;;;;7.47;6.75;;;;;;;;;;5018516;28;20029;-67
2022/07/02 01:12:45;;;;;;;9.02;6.18;;;;;;;;;;5022057;28;20052;-68
2022/07/02 01:15:11;;;;;;;8.15;6.63;;;;;;;;;;5025201;28;20460;-68
2022/07/02 01:17:37;;;;;;;6.38;5.88;;;;;;;;;;5024946;28;20545;-68
2022/07/02 01:20:03;;;;;;;8.50;7.00;;;;;;;;;;5017528;28;20027;-68
2022/07/02 01:22:34;;;;;;;6.63;6.03;;;;;;;;;;5024962;28;20040;-67
2022/07/02 01:24:59;;;;;;;7.45;6.75;;;;;;;;;;5025606;28;20117;-71
2022/07/02 01:27:24;;;;;;;9.07;6.18;;;;;;;;;;5025432;28;20108;-66
2022/07/02 01:29:50;;;;;;;7.38;6.65;;;;;;;;;;5022841;28;20044;-68
2022/07/02 01:32:16;;;;;;;7.60;6.13;;;;;;;;;;5019389;28;20446;-66
2022/07/02 01:34:42;;;;;;;8.13;6.85;;;;;;;;;;5024988;28;20025;-67
2022/07/02 01:37:11;;;;;;;8.43;6.72;;;;;;;;;;5018121;28;20021;-71
2022/07/02 01:39:37;;;;;;;8.25;7.45;;;;;;;;;;5024671;28;20483;-66
2022/07/02 01:42:03;;;;;;;8.05;7.35;;;;;;;;;;5025062;28;20080;-67
2022/07/02 01:44:29;;;;;;;8.13;7.10;;;;;;;;;;5024498;28;20029;-70
2022/07/02 01:46:54;;;;;;;7.25;6.65;;;;;;;;;;5024260;28;20025;-68
2022/07/02 01:49:20;;;;;;;8.35;6.78;;;;;;;;;;5024630;28;20033;-73
2022/07/02 01:51:45;;;;;;;8.10;6.82;;;;;;;;;;5019057;28;20036;-68
2022/07/02 01:54:11;;;;;;;7.07;6.47;;;;;;;;;;5022129;28;20037;-65
2022/07/02 01:56:37;;;;;;;7.25;6.30;;;;;;;;;;5024327;28;20111;-67
2022/07/02 01:59:03;;;;;;;7.78;7.03;;;;;;;;;;5024322;28;20017;-66
2022/07/02 02:01:28;;;;;;;7.53;6.78;;;;;;;;;;5024438;28;20091;-66
2022/07/02 02:03:54;;;;;;;8.32;7.07;;;;;;;;;;5023720;28;20538;-71
2022/07/02 02:06:19;;;;;;;8.68;6.38;;;;;;;;;;5020337;28;20040;-67
2022/07/02 02:08:44;;;;;;;7.85;7.15;;;;;;;;;;5019739;28;20021;-68
2022/07/02 02:11:10;;;;;;;7.82;6.88;;;;;;;;;;5023662;28;20109;-66
2022/07/02 02:13:35;;;;;;;8.82;7.18;;;;;;;;;;5018246;28;20025;-68
2022/07/02 02:16:01;;;;;;;8.07;6.68;;;;;;;;;;5022002;28;20029;-66
2022/07/02 02:18:26;;;;;;;6.97;6.28;;;;;;;;;;5024225;28;20025;-67
2022/07/02 02:20:51;;;;;;;8.43;7.35;;;;;;;;;;5023942;28;20018;-66
2022/07/02 02:23:17;;;;;;;9.90;6.82;;;;;;;;;;5021410;28;20100;-73
2022/07/02 02:25:42;;;;;;;8.25;6.78;;;;;;;;;;5016685;28;20041;-68
2022/07/02 02:28:07;;;;;;;8.35;6.82;;;;;;;;;;5023385;28;20021;-67
2022/07/02 02:30:33;;;;;;;7.22;6.63;;;;;;;;;;5023794;28;20026;-71
2022/07/02 02:32:58;;;;;;;7.35;6.38;;;;;;;;;;5023952;28;20463;-69
2022/07/02 02:35:23;;;;;;;7.88;7.00;;;;;;;;;;5023290;28;20501;-67
2022/07/02 02:37:49;;;;;;;7.75;6.82;;;;;;;;;;5015825;28;20036;-66
2022/07/02 02:40:14;;;;;;;11.70;6.78;;;;;;;;;;5022816;28;20025;-67
2022/07/02 02:42:39;;;;;;;7.70;7.00;;;;;;;;;;5022336;28;20064;-66
2022/07/02 02:45:05;;;;;;;8.48;7.57;;;;;;;;;;5017426;28;20088;-65
2022/07/02 02:47:30;;;;;;;9.35;7.00;;;;;;;;;;5023806;28;20433;-72
2022/07/02 02:49:56;;;;;;;6.82;6.18;;;;;;;;;;5023164;28;20061;-68
2022/07/02 02:52:21;;;;;;;9.57;6.63;;;;;;;;;;5023364;28;20037;-66
2022/07/02 02:54:47;;;;;;;10.00;6.43;;;;;;;;;;5018632;28;20038;-73
2022/07/02 02:57:12;;;;;;;8.18;6.60;;;;;;;;;;5015548;28;20368;-67
2022/07/02 02:59:38;;;;;;;8.88;7.07;;;;;;;;;;5015099;28;20464;-67
2022/07/02 03:02:03;;;;;;;8.32;6.72;;;;;;;;;;5023126;28;20017;-69
2022/07/02 03:04:28;;;;;;;7.78;6.97;;;;;;;;;;5023380;28;20025;-66
2022/07/02 03:06:54;;;;;;;9.13;7.82;;;;;;;;;;5023744;28;20022;-65
2022/07/02 03:09:19;;;;;;;10.40;8.02;;;;;;;;;;5023515;28;20026;-67
2022/07/02 03:11:45;;;;;;;9.27;8.38;;;;;;;;;;5021659;28;20415;-72
2022/07/02 03:14:10;;;;;;;8.43;7.63;;;;;;;;;;5014756;28;20032;-68
2022/07/02 03:16:35;;;;;;;9.57;7.53;;;;;;;;;;5014553;28;20491;-74
2022/07/02 03:19:01;;;;;;;8.55;7.57;;;;;;;;;;5014893;28;20030;-67
2022/07/02 03:21:26;;;;;;;8.55;7.40;;;;;;;;;;5018095;28;20033;-68
2022/07/02 03:23:51;;;;;;;10.52;8.30;;;;;;;;;;5015954;28;20520;-68
2022/07/02 03:26:17;;;;;;;12.95;8.80;;;;;;;;;;5014686;28;20022;-67
2022/07/02 03:28:42;;;;;;;9.70;7.93;;;;;;;;;;5012304;28;20091;-67
2022/07/02 03:31:08;;;;;;;9.32;7.97;;;;;;;;;;5016749;28;20053;-65
2022/07/02 03:33:33;;;;;;;7.68;6.97;;;;;;;;;;5023270;28;20033;-67
2022/07/02 03:35:58;;;;;;;7.20;6.55;;;;;;;;;;5023191;28;20436;-73
2022/07/02 03:38:24;;;;;;;8.45;7.63;;;;;;;;;;5022677;28;20029;-69
2022/07/02 03:40:49;;;;;;;8.02;7.22;;;;;;;;;;5022882;28;20760;-67
2022/07/02 03:43:14;;;;;;;7.97;7.18;;;;;;;;;;5023114;28;20123;-71
2022/07/02 03:45:40;;;;;;;8.38;7.22;;;;;;;;;;5022880;28;20394;-67
2022/07/02 03:48:05;;;;;;;10.45;7.50;;;;;;;;;;5016681;28;20037;-67
2022/07/02 03:50:31;;;;;;;9.18;7.68;;;;;;;;;;5018815;28;20030;-67
2022/07/02 03:52:56;;;;;;;11.65;7.53;;;;;;;;;;5018293;28;20026;-67
2022/07/02 03:55:21;;;;;;;7.78;7.07;;;;;;;;;;5026844;28;20167;-67
2022/07/02 03:57:47;;;;;;;7.97;7.07;;;;;;;;;;5026729;28;20426;-67
2022/07/02 04:00:12;;;;;;;8.65;7.85;;;;;;;;;;5026157;28;20033;-68
2022/07/02 04:02:38;;;;;;;8.77;7.30;;;;;;;;;;5026495;28;20112;-69
2022/07/02 04:05:04;;;;;;;9.68;7.00;;;;;;;;;;5027219;28;20318;-73
2022/07/02 04:07:29;;;;;;;7.90;7.10;;;;;;;;;;5026682;28;20027;-66
2022/07/02 04:09:54;;;;;;;7.22;6.47;;;;;;;;;;5026723;28;20031;-69
2022/07/02 04:12:20;;;;;;;9.45;7.35;;;;;;;;;;5026136;28;20025;-66
2022/07/02 04:14:45;;;;;;;9.20;7.15;;;;;;;;;;5026403;28;20099;-66
2022/07/02 04:17:10;;;;;;;9.68;7.25;;;;;;;;;;5026560;28;20048;-66
2022/07/02 04:19:36;;;;;;;8.23;7.55;;;;;;;;;;5026191;28;20112;-67
2022/07/02 04:22:01;;;;;;;8.35;7.45;;;;;;;;;;5026658;28;20387;-66
2022/07/02 04:24:28;;;;;;;8.65;7.85;;;;;;;;;;5026388;28;20075;-71
2022/07/02 04:26:53;;;;;;;9.10;7.88;;;;;;;;;;5026049;28;20075;-69
2022/07/02 04:29:18;;;;;;;8.95;7.65;;;;;;;;;;5026162;28;20029;-72
2022/07/02 04:31:44;;;;;;;8.80;7.90;;;;;;;;;;5023072;28;20029;-68
2022/07/02 04:34:09;;;;;;;8.77;7.57;;;;;;;;;;5020404;28;20116;-66
2022/07/02 04:36:35;;;;;;;17.95;7.68;;;;;;;;;;5025713;28;20036;-66
2022/07/02 04:39:01;;;;;;;7.97;7.28;;;;;;;;;;5025789;28;20032;-66
2022/07/02 04:41:27;;;;;;;7.95;7.25;;;;;;;;;;5025383;28;20057;-69
2022/07/02 04:43:52;;;;;;;10.38;8.00;;;;;;;;;;5025796;28;20516;-73
2022/07/02 04:46:18;;;;;;;8.27;7.47;;;;;;;;;;5024863;28;20050;-70
2022/07/02 04:48:43;;;;;;;9.23;8.32;;;;;;;;;;5015791;28;20337;-66
2022/07/02 04:51:08;;;;;;;11.98;10.77;;;;;;;;;;5015953;28;20302;-68
2022/07/02 04:53:34;;;;;;;13.10;11.80;;;;;;;;;;5016683;28;20104;-66
2022/07/02 04:55:59;;;;;;;16.23;11.57;;;;;;;;;;5018657;28;20021;-68
2022/07/02 04:58:25;;;;;;;13.00;11.70;;;;;;;;;;5019209;28;20068;-67
2022/07/02 05:00:51;;;;;;;11.68;10.48;;;;;;;;;;5024297;28;20022;-68
2022/07/02 05:03:16;;;;;;;9.52;8.60;;;;;;;;;;5025122;28;20029;-73
2022/07/02 05:05:42;;;;;;;14.77;7.97;;;;;;;;;;5025030;28;20037;-70
2022/07/02 05:08:07;;;;;;;8.00;7.28;;;;;;;;;;5025281;28;20030;-69
2022/07/02 05:10:32;;;;;;;10.30;9.20;;;;;;;;;;5025072;28;20094;-67
2022/07/02 05:12:58;;;;;;;10.65;9.52;;;;;;;;;;5025249;28;20112;-67
2022/07/02 05:15:23;;;;;;;9.43;8.48;;;;;;;;;;5024705;28;20040;-68
2022/07/02 05:17:49;;;;;;;15.05;9.95;;;;;;;;;;5022848;28;20088;-69
2022/07/02 05:20:14;;;;;;;10.50;9.57;;;;;;;;;;5016269;28;20063;-69
2022/07/02 05:22:39;;;;;;;9.25;8.05;;;;;;;;;;5017546;28;20040;-75
2022/07/02 05:25:05;;;;;;;9.05;7.85;;;;;;;;;;5018753;28;20043;-71
2022/07/02 05:27:30;;;;;;;8.25;7.55;;;;;;;;;;5020266;28;20036;-77
2022/07/02 05:29:56;;;;;;;12.85;7.80;;;;;;;;;;5015702;28;20032;-73
2022/07/02 05:32:21;;;;;;;8.23;7.53;;;;;;;;;;5016270;28;20035;-69
2022/07/02 05:34:46;;;;;;;8.77;7.28;;;;;;;;;;5021507;28;20433;-71
2022/07/02 05:37:12;;;;;;;7.93;7.22;;;;;;;;;;5015951;28;20028;-70
2022/07/02 05:39:37;;;;;;;9.43;6.75;;;;;;;;;;5014122;28;20087;-75
2022/07/02 05:42:02;;;;;;;9.45;7.22;;;;;;;;;;5014815;28;20141;-71
2022/07/02 05:44:28;;;;;;;6.88;6.25;;;;;;;;;;5014989;28;20040;-72
2022/07/02 05:46:53;;;;;;;6.53;5.97;;;;;;;;;;5019622;28;20104;-76
2022/07/02 05:49:18;;;;;;;6.97;6.38;;;;;;;;;;5023217;28;20036;-73
2022/07/02 05:51:44;;;;;;;7.22;6.53;;;;;;;;;;5016704;28;20024;-76
2022/07/02 05:54:10;;;;;;;6.88;6.30;;;;;;;;;;5014593;28;20098;-79
2022/07/02 05:56:35;;;;;;;7.50;6.82;;;;;;;;;;5016675;28;20041;-68
2022/07/02 05:59:00;;;;;;;8.60;7.75;;;;;;;;;;5032056;28;20044;-69
2022/07/02 06:01:27;;;;;;;9.70;8.80;;;;;;;;;;5028362;28;20559;-69
2022/07/02 06:03:53;;;;;;;10.23;9.10;;;;;;;;;;5034426;28;20026;-68
2022/07/02 06:09:09;;;;;;;16.88;15.38;;;;;;;;;;5006150;28;20041;-69
2022/07/02 06:11:35;;;;;;;18.88;16.45;;;;;;;;;;5019832;28;20022;-69
2022/07/02 06:14:00;;;;;;;18.02;16.05;;;;;;;;;;5013990;28;20412;-69
2022/07/02 06:16:27;;;;;;;14.20;12.73;;;;;;;;;;5013547;28;20033;-69
2022/07/02 06:18:53;;;;;;;10.25;9.43;;;;;;;;;;5013688;28;20318;-69
2022/07/02 06:21:18;;;;;;;9.05;8.05;;;;;;;;;;5013822;28;20032;-69
2022/07/02 06:23:43;;;;;;;8.05;7.28;;;;;;;;;;5013914;28;20036;-69
2022/07/02 06:26:09;;;;;;;11.93;8.73;;;;;;;;;;5013466;28;20393;-68
2022/07/02 06:28:34;;;;;;;8.65;7.75;;;;;;;;;;5013597;28;20037;-70
2022/07/02 06:31:00;;;;;;;7.88;7.07;;;;;;;;;;5013696;28;20416;-69
2022/07/02 06:33:25;;;;;;;7.35;6.55;;;;;;;;;;5013802;28;20030;-69
2022/07/02 06:35:50;;;;;;;7.32;6.63;;;;;;;;;;5013936;28;20121;-69
2022/07/02 06:38:16;;;;;;;8.85;6.72;;;;;;;;;;5013545;28;20033;-69
2022/07/02 06:40:41;;;;;;;8.32;7.50;;;;;;;;;;5013169;28;20036;-69
2022/07/02 06:43:06;;;;;;;8.75;7.30;;;;;;;;;;5014093;28;20437;-70
2022/07/02 06:45:32;;;;;;;8.07;7.38;;;;;;;;;;5014002;28;20030;-69
2022/07/02 06:47:58;;;;;;;7.53;6.85;;;;;;;;;;5013617;28;20022;-68
2022/07/02 06:50:23;;;;;;;8.43;7.50;;;;;;;;;;5012482;28;20092;-70
2022/07/02 06:52:49;;;;;;;8.60;7.68;;;;;;;;;;5013274;28;20022;-70
2022/07/02 06:55:14;;;;;;;9.05;7.75;;;;;;;;;;5013421;28;20433;-70
2022/07/02 06:57:39;;;;;;;8.77;7.88;;;;;;;;;;5013635;28;20341;-69
2022/07/02 07:00:05;;;;;;;7.97;7.28;;;;;;;;;;5013717;28;20123;-69
2022/07/02 07:02:31;;;;;;;9.48;6.93;;;;;;;;;;5013363;28;20018;-68
2022/07/02 07:04:56;;;;;;;8.07;7.28;;;;;;;;;;5014086;28;20042;-68
2022/07/02 07:07:27;;;;;;;8.00;7.20;;;;;;;;;;5008255;28;20148;-68
2022/07/02 07:09:53;;;;;;;7.85;7.05;;;;;;;;;;5014343;28;20029;-70
2022/07/02 07:12:18;;;;;;;8.40;7.15;;;;;;;;;;5012780;28;20025;-71
2022/07/02 07:14:44;;;;;;;7.60;6.80;;;;;;;;;;5006342;28;20026;-71
2022/07/02 07:17:09;;;;;;;8.38;7.57;;;;;;;;;;5002013;28;20036;-71
2022/07/02 07:19:34;;;;;;;8.55;6.93;;;;;;;;;;5005506;28;20453;-75
2022/07/02 07:22:00;;;;;;;8.70;6.82;;;;;;;;;;5003011;28;20044;-75
2022/07/02 07:24:26;;;;;;;8.55;7.22;;;;;;;;;;5006750;28;20037;-72
2022/07/02 07:26:51;;;;;;;8.88;7.50;;;;;;;;;;5004989;28;20049;-79
2022/07/02 07:29:16;;;;;;;7.97;7.28;;;;;;;;;;5008372;28;20491;-71
2022/07/02 07:31:42;;;;;;;8.32;7.53;;;;;;;;;;5011551;28;20092;-75
2022/07/02 07:34:08;;;;;;;14.48;7.70;;;;;;;;;;5023687;28;20040;-71
2022/07/02 07:36:34;;;;;;;9.48;8.30;;;;;;;;;;5010935;28;20037;-72
2022/07/02 07:38:59;;;;;;;10.35;8.57;;;;;;;;;;5010553;28;20452;-72
2022/07/02 07:41:25;;;;;;;10.40;8.52;;;;;;;;;;5010213;28;20495;-72
2022/07/02 07:43:54;;;;;;;8.57;7.25;;;;;;;;;;5007694;28;20030;-79
2022/07/02 07:46:19;;;;;;;10.18;7.07;;;;;;;;;;5010936;28;20029;-76
2022/07/02 07:48:47;;;;;;;7.60;6.90;;;;;;;;;;5008915;28;20483;-76
2022/07/02 07:51:13;;;;;;;8.07;7.32;;;;;;;;;;5009028;28;20068;-72
2022/07/02 07:53:38;;;;;;;8.65;7.10;;;;;;;;;;5010623;28;20122;-70
2022/07/02 07:56:04;;;;;;;9.40;6.93;;;;;;;;;;5009413;28;20060;-71
2022/07/02 07:58:29;;;;;;;9.55;6.78;;;;;;;;;;5009450;28;20041;-72
2022/07/02 08:00:55;;;;;;;10.43;6.78;;;;;;;;;;5008377;28;20034;-71
2022/07/02 08:03:20;;;;;;;8.75;6.80;;;;;;;;;;5009438;28;20444;-73
2022/07/02 08:05:46;;;;;;;7.40;6.63;;;;;;;;;;5007448;28;20034;-71
2022/07/02 08:08:12;;;;;;;7.07;5.85;;;;;;;;;;5011021;28;20036;-72
2022/07/02 08:10:38;;;;;;;7.88;5.80;;;;;;;;;;5011725;28;20036;-73
2022/07/02 08:13:03;;;;;;;10.23;5.82;;;;;;;;;;5009390;28;20030;-72
2022/07/02 08:15:28;;;;;;;8.38;6.25;;;;;;;;;;5009164;28;20036;-71
2022/07/02 08:17:54;;;;;;;7.90;6.05;;;;;;;;;;5008268;28;20445;-73
2022/07/02 08:20:20;;;;;;;7.15;6.10;;;;;;;;;;5009828;28;20120;-71
2022/07/02 08:22:46;;;;;;;10.38;6.57;;;;;;;;;;5007287;28;20053;-71
2022/07/02 08:25:12;;;;;;;6.95;6.35;;;;;;;;;;5007048;28;20025;-75
2022/07/02 08:27:38;;;;;;;7.53;5.82;;;;;;;;;;5010213;28;20103;-80
2022/07/02 08:30:03;;;;;;;5.93;5.35;;;;;;;;;;5009120;28;20017;-71
2022/07/02 08:32:28;;;;;;;9.95;6.97;;;;;;;;;;5007278;28;20037;-72
2022/07/02 08:34:55;;;;;;;7.05;5.90;;;;;;;;;;5009501;28;20115;-72
2022/07/02 08:37:22;;;;;;;6.38;5.78;;;;;;;;;;5008515;28;20029;-72
2022/07/02 08:39:47;;;;;;;9.98;6.15;;;;;;;;;;5005068;28;20145;-80
2022/07/02 08:42:18;;;;;;;8.65;6.53;;;;;;;;;;5008732;28;20042;-73
2022/07/02 08:44:45;;;;;;;8.80;6.28;;;;;;;;;;5012766;28;20346;-72
2022/07/02 08:47:10;;;;;;;6.13;5.53;;;;;;;;;;5020738;28;20034;-74
2022/07/02 08:49:37;;;;;;;9.82;5.65;;;;;;;;;;5007780;28;20036;-74
2022/07/02 08:52:07;;;;;;;5.97;5.47;;;;;;;;;;5015482;28;20037;-70
2022/07/02 08:54:32;;;;;;;6.68;5.85;;;;;;;;;;5017677;28;20147;-70
2022/07/02 08:57:02;;;;;;;6.72;5.65;;;;;;;;;;5015565;28;20337;-68
2022/07/02 08:59:29;;;;;;;9.18;6.25;;;;;;;;;;5017327;28;20045;-71
2022/07/02 09:01:55;;;;;;;9.15;5.90;;;;;;;;;;5006833;28;20100;-76
2022/07/02 09:04:22;;;;;;;9.60;6.13;;;;;;;;;;5008539;28;20128;-71
2022/07/02 09:06:49;;;;;;;7.95;5.38;;;;;;;;;;5008026;28;20063;-77
2022/07/02 09:09:15;;;;;;;6.38;5.85;;;;;;;;;;5007982;28;20041;-70
2022/07/02 09:11:41;;;;;;;7.18;6.45;;;;;;;;;;5007455;28;20030;-74
2022/07/02 09:14:07;;;;;;;8.40;5.90;;;;;;;;;;5007997;28;20041;-69
2022/07/02 09:16:32;;;;;;;7.70;6.15;;;;;;;;;;5008966;28;20032;-70
2022/07/02 09:18:57;;;;;;;8.30;5.75;;;;;;;;;;5022299;28;20021;-75
2022/07/02 09:21:23;;;;;;;6.68;6.07;;;;;;;;;;5007283;28;20441;-72
2022/07/02 09:23:50;;;;;;;7.28;5.78;;;;;;;;;;5007392;28;20049;-70
2022/07/02 09:26:22;;;;;;;6.28;5.70;;;;;;;;;;5007224;28;20116;-76
2022/07/02 09:28:55;;;;;;;6.22;5.60;;;;;;;;;;5008173;28;20025;-71
2022/07/02 09:31:20;;;;;;;6.85;5.97;;;;;;;;;;5005853;28;20049;-79
2022/07/02 09:33:46;;;;;;;7.80;5.53;;;;;;;;;;5007221;28;20128;-74
2022/07/02 09:36:12;;;;;;;5.97;5.38;;;;;;;;;;5006692;28;20028;-71
2022/07/02 09:38:41;;;;;;;6.38;4.75;;;;;;;;;;5005709;28;20029;-72
2022/07/02 09:41:10;;;;;;;5.75;5.25;;;;;;;;;;5004970;28;20038;-70
2022/07/02 09:43:38;;;;;;;7.30;5.72;;;;;;;;;;5008047;28;20336;-70
2022/07/02 09:46:13;;;;;;;6.07;5.30;;;;;;;;;;5004408;28;20037;-70
2022/07/02 09:48:38;;;;;;;5.82;4.95;;;;;;;;;;5007642;28;20468;-78
2022/07/02 09:51:04;;;;;;;5.72;5.18;;;;;;;;;;5005825;28;20040;-74
2022/07/02 09:53:29;;;;;;;7.30;5.20;;;;;;;;;;5006275;28;20035;-74
2022/07/02 09:55:55;;;;;;;6.57;5.93;;;;;;;;;;5005615;28;20376;-71
2022/07/02 09:58:27;;;;;;;5.57;5.00;;;;;;;;;;5007367;28;20030;-71
2022/07/02 10:00:53;;;;;;;8.60;5.63;;;;;;;;;;5006629;28;20801;-70
2022/07/02 10:03:19;;;;;;;5.60;5.10;;;;;;;;;;5007187;28;20030;-76
2022/07/02 10:05:45;;;;;;;10.32;5.22;;;;;;;;;;5007370;28;20072;-69
2022/07/02 10:08:11;;;;;;;6.75;4.80;;;;;;;;;;5005169;28;20044;-77
2022/07/02 10:10:40;;;;;;;5.53;5.03;;;;;;;;;;5004238;28;20037;-78
2022/07/02 10:13:06;;;;;;;8.63;5.85;;;;;;;;;;5005751;28;20060;-78
2022/07/02 10:15:33;;;;;;;6.47;5.20;;;;;;;;;;5005621;28;20040;-71
2022/07/02 10:18:00;;;;;;;7.10;5.00;;;;;;;;;;5007890;28;20021;-70
2022/07/02 10:20:27;;;;;;;9.38;5.85;;;;;;;;;;5018916;28;20028;-76
2022/07/02 10:22:52;;;;;;;5.13;4.72;;;;;;;;;;5017729;28;20029;-70
2022/07/02 10:25:18;;;;;;;9.20;5.10;;;;;;;;;;5016476;28;20024;-73
2022/07/02 10:27:44;;;;;;;9.32;5.35;;;;;;;;;;5008987;28;20440;-67
2022/07/02 10:30:10;;;;;;;5.93;5.25;;;;;;;;;;5002866;28;20104;-70
2022/07/02 10:32:40;;;;;;;6.45;5.45;;;;;;;;;;5004038;28;20030;-68
2022/07/02 10:35:10;;;;;;;9.52;5.45;;;;;;;;;;5012742;28;20035;-67
2022/07/02 10:37:39;;;;;;;9.35;5.60;;;;;;;;;;5016333;28;20032;-67
2022/07/02 10:40:05;;;;;;;5.80;5.22;;;;;;;;;;5010351;28;20125;-74
2022/07/02 10:42:37;;;;;;;6.00;5.40;;;;;;;;;;5006804;28;20180;-69
2022/07/02 10:45:14;;;;;;;7.50;5.50;;;;;;;;;;5008171;28;20026;-74
2022/07/02 10:47:55;;;;;;;5.78;5.15;;;;;;;;;;5006066;28;20049;-72
2022/07/02 10:50:24;;;;;;;5.72;4.88;;;;;;;;;;5003760;28;20314;-67
2022/07/02 10:52:51;;;;;;;8.05;5.15;;;;;;;;;;5006764;28;20117;-69
2022/07/02 10:55:29;;;;;;;7.60;5.43;;;;;;;;;;5007831;28;20017;-68
2022/07/02 10:58:01;;;;;;;5.65;4.82;;;;;;;;;;5005841;28;20025;-72
2022/07/02 11:00:31;;;;;;;5.05;4.60;;;;;;;;;;5006596;28;20044;-73
2022/07/02 11:03:10;;;;;;;5.93;5.05;;;;;;;;;;5006382;28;20083;-76
2022/07/02 11:05:35;;;;;;;5.68;5.18;;;;;;;;;;5017197;28;20036;-72
2022/07/02 11:08:00;;;;;;;6.78;5.60;;;;;;;;;;5004822;28;20029;-71
2022/07/02 11:10:27;;;;;;;6.15;5.40;;;;;;;;;;5005469;28;20139;-68
2022/07/02 11:12:57;;;;;;;5.70;5.20;;;;;;;;;;5006286;28;20029;-68
2022/07/02 11:15:32;;;;;;;8.20;5.47;;;;;;;;;;5005033;28;20028;-70
2022/07/02 11:18:01;;;;;;;6.25;5.07;;;;;;;;;;5005275;28;20044;-72
2022/07/02 11:20:27;;;;;;;10.50;5.88;;;;;;;;;;5015006;28;20033;-68
2022/07/02 11:22:52;;;;;;;5.50;5.10;;;;;;;;;;5009620;28;20053;-73
2022/07/02 11:25:18;;;;;;;9.38;5.25;;;;;;;;;;5008106;28;20152;-71
2022/07/02 11:27:53;;;;;;;5.75;5.25;;;;;;;;;;5010725;28;20349;-71
2022/07/02 11:30:23;;;;;;;6.03;5.53;;;;;;;;;;5017694;28;20041;-71
2022/07/02 11:32:48;;;;;;;5.32;4.88;;;;;;;;;;5016127;28;20095;-70
2022/07/02 11:35:16;;;;;;;6.05;5.45;;;;;;;;;;5016702;28;20415;-70
2022/07/02 11:37:45;;;;;;;6.00;5.50;;;;;;;;;;5017504;28;20026;-71
2022/07/02 11:40:23;;;;;;;6.28;5.45;;;;;;;;;;5016492;28;20436;-70
2022/07/02 11:42:48;;;;;;;5.97;4.80;;;;;;;;;;5014469;28;20141;-70
2022/07/02 11:45:14;;;;;;;5.75;4.97;;;;;;;;;;5015677;28;20112;-70
2022/07/02 11:47:46;;;;;;;7.13;4.70;;;;;;;;;;5024761;28;20460;-72
2022/07/02 11:50:12;;;;;;;5.65;4.95;;;;;;;;;;5013144;28;20054;-69
2022/07/02 11:52:37;;;;;;;6.63;5.13;;;;;;;;;;5016725;28;20026;-71
2022/07/02 11:55:03;;;;;;;6.82;4.78;;;;;;;;;;5015724;28;20040;-70
2022/07/02 11:57:32;;;;;;;5.47;4.78;;;;;;;;;;5010341;28;20067;-71
2022/07/02 11:59:57;;;;;;;7.45;4.80;;;;;;;;;;5013356;28;20029;-71
2022/07/02 12:02:22;;;;;;;5.07;4.68;;;;;;;;;;5007125;28;20021;-70
2022/07/02 12:04:48;;;;;;;7.55;4.72;;;;;;;;;;5007061;28;20112;-71
2022/07/02 12:07:13;;;;;;;7.95;5.15;;;;;;;;;;5006963;28;20425;-71
2022/07/02 12:09:39;;;;;;;8.40;5.47;;;;;;;;;;5012413;28;20096;-69
2022/07/02 12:12:05;;;;;;;5.93;5.05;;;;;;;;;;5016515;28;20387;-70
2022/07/02 12:14:30;;;;;;;5.97;5.20;;;;;;;;;;5015003;28;20087;-70
2022/07/02 12:16:56;;;;;;;8.77;5.68;;;;;;;;;;5019803;28;20088;-70
2022/07/02 12:19:32;;;;;;;5.93;5.18;;;;;;;;;;5021043;28;20029;-70
2022/07/02 12:21:58;;;;;;;12.07;4.90;;;;;;;;;;5018904;28;20045;-71
2022/07/02 12:24:25;;;;;;;7.03;5.00;;;;;;;;;;5018083;28;20365;-69
2022/07/02 12:26:58;;;;;;;5.15;4.75;;;;;;;;;;5020956;28;20040;-70
2022/07/02 12:32:18;;;;;;;8.68;4.57;;;;;;;;;;5020940;28;20040;-71
2022/07/02 12:34:51;;;;;;;9.20;5.40;;;;;;;;;;5017900;28;20132;-71
2022/07/02 12:37:24;;;;;;;8.23;4.80;;;;;;;;;;5033356;28;20028;-71
2022/07/02 12:39:55;;;;;;;7.97;4.95;;;;;;;;;;5018433;28;20030;-69
2022/07/02 12:42:21;;;;;;;6.00;4.70;;;;;;;;;;5012721;28;20107;-71
2022/07/02 12:44:57;;;;;;;5.15;4.55;;;;;;;;;;5008999;28;20029;-71
2022/07/02 12:47:31;;;;;;;10.98;5.40;;;;;;;;;;5021228;28;20095;-72
2022/07/02 12:50:02;;;;;;;5.88;5.28;;;;;;;;;;5010084;28;20036;-71
2022/07/02 12:52:30;;;;;;;7.15;4.97;;;;;;;;;;5009670;28;20037;-71
2022/07/02 12:54:55;;;;;;;5.30;4.80;;;;;;;;;;5009797;28;20076;-71
2022/07/02 12:57:22;;;;;;;6.35;4.60;;;;;;;;;;5010150;28;20025;-71
2022/07/02 12:59:48;;;;;;;6.03;4.70;;;;;;;;;;5008996;28;20033;-70
2022/07/02 13:02:18;;;;;;;5.55;4.97;;;;;;;;;;5006825;28;20049;-73
2022/07/02 13:04:44;;;;;;;5.28;4.78;;;;;;;;;;5007046;28;20061;-72
2022/07/02 13:07:11;;;;;;;6.70;4.90;;;;;;;;;;5008242;28;20036;-71
2022/07/02 13:09:36;;;;;;;7.07;4.85;;;;;;;;;;5006544;28;20109;-70
2022/07/02 13:12:01;;;;;;;7.45;4.35;;;;;;;;;;5009780;28;20104;-71
2022/07/02 13:14:27;;;;;;;5.88;4.57;;;;;;;;;;5008902;28;20869;-71
2022/07/02 13:16:52;;;;;;;5.30;4.90;;;;;;;;;;5008131;28;20029;-72
2022/07/02 13:19:17;;;;;;;5.13;4.53;;;;;;;;;;5006866;28;20025;-74
2022/07/02 13:21:43;;;;;;;4.82;4.43;;;;;;;;;;5008050;28;20037;-71
2022/07/02 13:24:08;;;;;;;6.93;4.90;;;;;;;;;;5008582;28;20045;-70
2022/07/02 13:26:34;;;;;;;5.00;4.60;;;;;;;;;;5007724;28;20913;-71
2022/07/02 13:28:59;;;;;;;5.13;4.55;;;;;;;;;;5007629;28;20029;-70
2022/07/02 13:31:26;;;;;;;4.97;4.47;;;;;;;;;;5008481;28;20029;-71
2022/07/02 13:33:51;;;;;;;7.28;4.22;;;;;;;;;;5018458;28;20111;-71
2022/07/02 13:36:16;;;;;;;5.93;4.00;;;;;;;;;;5018786;28;20456;-70
2022/07/02 13:38:42;;;;;;;5.00;4.57;;;;;;;;;;5009591;28;20112;-70
2022/07/02 13:41:08;;;;;;;5.30;4.80;;;;;;;;;;5005699;28;20037;-69
2022/07/02 13:43:33;;;;;;;7.85;4.57;;;;;;;;;;5008073;28;20038;-73
2022/07/02 13:45:59;;;;;;;6.72;4.60;;;;;;;;;;5007319;28;20350;-70
2022/07/02 13:48:24;;;;;;;5.38;4.88;;;;;;;;;;5007253;28;20631;-74
2022/07/02 13:50:49;;;;;;;7.38;5.60;;;;;;;;;;5017416;28;20437;-73
2022/07/02 13:53:15;;;;;;;5.22;4.55;;;;;;;;;;5016757;28;20089;-74
2022/07/02 13:55:40;;;;;;;6.35;5.45;;;;;;;;;;5017305;28;20144;-72
2022/07/02 13:58:05;;;;;;;7.65;5.00;;;;;;;;;;5008152;28;20052;-72
2022/07/02 14:00:31;;;;;;;5.40;4.90;;;;;;;;;;5006998;28;21215;-74
2022/07/02 14:02:56;;;;;;;5.68;5.20;;;;;;;;;;5004167;28;20037;-71
2022/07/02 14:05:21;;;;;;;8.48;6.03;;;;;;;;;;5011899;28;20033;-71
2022/07/02 14:07:47;;;;;;;6.47;5.22;;;;;;;;;;5010121;28;20365;-72
2022/07/02 14:10:12;;;;;;;5.88;5.10;;;;;;;;;;5009175;28;20483;-70
2022/07/02 14:12:37;;;;;;;7.88;6.07;;;;;;;;;;5008564;28;20021;-71
2022/07/02 14:15:03;;;;;;;5.95;5.38;;;;;;;;;;5006398;28;20022;-73
2022/07/02 14:53:25;;;;;;;6.28;5.45;;;;;;;;;;5107942;27;20391;-70
2022/07/02 14:55:50;;;;;;;5.82;5.00;;;;;;;;;;5108691;28;20068;-68
2022/07/02 14:58:15;;;;;;;5.72;5.22;;;;;;;;;;5109814;28;20035;-69
2022/07/02 15:00:41;;;;;;;6.30;5.47;;;;;;;;;;5104456;27;20889;-70
2022/07/02 15:03:06;;;;;;;10.10;5.60;;;;;;;;;;5101880;27;20047;-71
2022/07/02 15:05:32;;;;;;;16.23;7.32;;;;;;;;;;5102988;28;20092;-71
2022/07/02 15:07:57;;;;;;;21.92;6.32;;;;;;;;;;5101408;27;20027;-70
2022/07/02 15:10:22;;;;;;;17.17;6.18;;;;;;;;;;5104893;28;20505;-70
2022/07/02 15:12:48;;;;;;;12.82;6.03;;;;;;;;;;5104280;28;21158;-70
2022/07/02 15:17:57;;;;;;;11.93;5.68;;;;;;;;;;5104349;28;20034;-68
2022/07/02 15:20:23;;;;;;;6.38;4.85;;;;;;;;;;5112043;27;20024;-72